createdAt,value
2022-08-03T00:01:49.157Z,19.51
2022-08-03T00:04:15.690Z,19.23
2022-08-03T00:06:42.211Z,19.21
2022-08-03T00:09:09.376Z,19.05
2022-08-03T00:11:36.285Z,19.09
2022-08-03T00:14:04.382Z,18.84
2022-08-03T00:16:30.838Z,18.95
2022-08-03T00:18:57.331Z,18.54
2022-08-03T00:21:24.059Z,18.83
2022-08-03T00:23:51.481Z,18.83
2022-08-03T00:26:20.475Z,19.00
2022-08-03T00:28:46.975Z,18.75
2022-08-03T00:31:13.867Z,19.00
2022-08-03T00:33:58.994Z,18.89
2022-08-03T00:36:28.122Z,18.87
2022-08-03T00:38:55.418Z,18.89
2022-08-03T00:41:22.174Z,18.74
2022-08-03T00:43:48.724Z,18.74
2022-08-03T00:46:19.247Z,18.41
2022-08-03T00:48:49.238Z,18.42
2022-08-03T00:51:15.898Z,18.48
2022-08-03T00:53:42.924Z,18.43
2022-08-03T00:56:09.451Z,17.95
2022-08-03T00:58:35.987Z,18.04
2022-08-03T01:01:02.506Z,18.45
2022-08-03T01:03:29.007Z,18.14
2022-08-03T01:06:07.368Z,18.33
2022-08-03T01:08:48.649Z,18.36
2022-08-03T01:11:28.898Z,18.04
2022-08-03T01:14:19.243Z,18.22
2022-08-03T01:16:58.658Z,18.16
2022-08-03T01:19:43.773Z,18.43
2022-08-03T01:22:38.069Z,18.45
2022-08-03T01:25:34.336Z,18.30
2022-08-03T01:28:28.678Z,18.27
2022-08-03T01:31:01.569Z,17.98
2022-08-03T01:33:57.266Z,18.30
2022-08-03T01:36:27.938Z,18.25
2022-08-03T01:39:00.261Z,17.94
2022-08-03T01:41:31.698Z,18.15
2022-08-03T01:44:30.133Z,18.18
2022-08-03T01:47:02.222Z,18.10
2022-08-03T01:49:31.905Z,18.09
2022-08-03T01:52:04.448Z,18.09
2022-08-03T01:54:46.432Z,18.11
2022-08-03T01:57:13.891Z,18.07
2022-08-03T01:59:42.041Z,17.75
2022-08-03T02:02:28.073Z,18.14
2022-08-03T02:05:01.324Z,18.08
2022-08-03T02:07:29.794Z,18.07
2022-08-03T02:09:58.732Z,17.82
2022-08-03T02:12:26.789Z,18.12
2022-08-03T02:14:54.045Z,17.84
2022-08-03T02:17:39.145Z,18.14
2022-08-03T02:20:08.042Z,18.15
2022-08-03T02:22:35.954Z,18.17
2022-08-03T02:25:02.498Z,17.89
2022-08-03T02:27:34.144Z,18.14
2022-08-03T02:30:04.550Z,18.14
2022-08-03T02:32:39.562Z,18.30
2022-08-03T02:35:14.747Z,18.02
2022-08-03T02:37:58.018Z,18.11
2022-08-03T02:40:27.955Z,18.06
2022-08-03T02:42:58.826Z,17.80
2022-08-03T02:45:27.931Z,17.94
2022-08-03T02:47:59.790Z,18.16
2022-08-03T02:50:27.125Z,18.17
2022-08-03T02:52:56.986Z,18.10
2022-08-03T02:55:27.333Z,17.95
2022-08-03T02:57:55.501Z,17.90
2022-08-03T03:00:27.296Z,17.93
2022-08-03T03:02:58.488Z,17.84
2022-08-03T03:05:54.711Z,17.81
2022-08-03T03:08:17.777Z,17.59
2022-08-03T03:10:47.915Z,17.89
2022-08-03T03:13:15.856Z,17.85
2022-08-03T03:15:44.878Z,17.85
2022-08-03T03:18:12.644Z,17.85
2022-08-03T03:20:39.804Z,17.39
2022-08-03T03:23:08.953Z,17.77
2022-08-03T03:25:36.317Z,17.85
2022-08-03T03:28:03.053Z,17.70
2022-08-03T03:30:30.223Z,17.91
2022-08-03T03:32:58.424Z,17.82
2022-08-03T03:35:26.088Z,17.77
2022-08-03T03:37:52.711Z,17.70
2022-08-03T03:40:19.195Z,17.78
2022-08-03T03:42:45.814Z,17.85
2022-08-03T03:45:12.739Z,17.81
2022-08-03T03:47:39.265Z,17.69
2022-08-03T03:50:06.581Z,17.85
2022-08-03T03:52:33.549Z,17.53
2022-08-03T03:55:01.374Z,17.86
2022-08-03T03:57:28.821Z,17.97
2022-08-03T03:59:55.289Z,17.79
2022-08-03T04:02:21.745Z,17.78
2022-08-03T04:04:48.225Z,17.53
2022-08-03T04:07:14.710Z,17.62
2022-08-03T04:09:42.780Z,17.72
2022-08-03T04:12:09.592Z,17.61
2022-08-03T04:14:39.325Z,17.70
2022-08-03T04:17:09.276Z,17.91
2022-08-03T04:19:47.752Z,17.80
2022-08-03T04:22:18.740Z,17.69
2022-08-03T04:24:49.694Z,17.35
2022-08-03T04:27:20.803Z,17.45
2022-08-03T04:29:50.501Z,17.65
2022-08-03T04:32:17.983Z,17.48
2022-08-03T04:34:44.953Z,17.45
2022-08-03T04:37:37.113Z,17.15
2022-08-03T04:40:07.345Z,17.53
2022-08-03T04:42:34.418Z,17.19
2022-08-03T04:45:03.166Z,17.55
2022-08-03T04:47:33.071Z,17.45
2022-08-03T04:50:02.307Z,17.27
2022-08-03T04:52:29.116Z,17.43
2022-08-03T04:54:55.768Z,17.12
2022-08-03T04:57:23.587Z,17.47
2022-08-03T04:59:52.113Z,17.44
2022-08-03T05:02:19.096Z,17.38
2022-08-03T05:04:45.675Z,17.49
2022-08-03T05:07:19.462Z,17.81
2022-08-03T05:09:52.739Z,17.77
2022-08-03T05:12:19.648Z,17.55
2022-08-03T05:14:46.084Z,17.64
2022-08-03T05:17:12.576Z,18.12
2022-08-03T05:19:39.024Z,18.35
2022-08-03T05:22:05.471Z,18.19
2022-08-03T05:24:31.983Z,18.18
2022-08-03T05:26:58.406Z,18.14
2022-08-03T05:29:24.880Z,18.25
2022-08-03T05:31:51.304Z,18.04
2022-08-03T05:34:17.726Z,18.15
2022-08-03T05:36:44.187Z,18.55
2022-08-03T05:39:10.641Z,18.37
2022-08-03T05:41:37.649Z,18.26
2022-08-03T05:44:05.236Z,18.86
2022-08-03T05:46:32.243Z,18.91
2022-08-03T05:48:58.725Z,18.86
2022-08-03T05:51:25.154Z,18.87
2022-08-03T05:53:51.568Z,18.71
2022-08-03T05:56:22.488Z,18.70
2022-08-03T05:58:49.102Z,19.36
2022-08-03T06:01:16.493Z,19.45
2022-08-03T06:03:43.029Z,19.46
2022-08-03T06:06:09.544Z,19.65
2022-08-03T06:08:35.986Z,19.75
2022-08-03T06:11:02.756Z,19.56
2022-08-03T06:13:29.225Z,19.62
2022-08-03T06:15:55.682Z,19.89
2022-08-03T06:18:22.136Z,20.17
2022-08-03T06:20:49.634Z,20.25
2022-08-03T06:23:17.964Z,20.10
2022-08-03T06:25:45.099Z,20.42
2022-08-03T06:28:19.075Z,21.31
2022-08-03T06:30:50.635Z,21.80
2022-08-03T06:33:17.096Z,22.05
2022-08-03T06:35:45.207Z,22.51
2022-08-03T06:38:12.025Z,22.34
2022-08-03T06:40:38.576Z,22.96
2022-08-03T06:43:06.120Z,23.26
2022-08-03T06:45:36.168Z,23.39
2022-08-03T06:48:09.050Z,22.77
2022-08-03T06:50:37.117Z,23.27
2022-08-03T06:53:04.788Z,23.04
2022-08-03T06:55:31.946Z,23.65
2022-08-03T06:57:59.751Z,23.40
2022-08-03T07:00:29.976Z,23.23
2022-08-03T07:02:58.446Z,22.61
2022-08-03T07:05:25.573Z,23.65
2022-08-03T07:07:55.390Z,23.17
2022-08-03T07:10:21.873Z,22.78
2022-08-03T07:12:55.693Z,23.58
2022-08-03T07:15:55.843Z,22.99
2022-08-03T07:18:09.900Z,23.90
2022-08-03T07:20:36.387Z,23.84
2022-08-03T07:23:02.900Z,24.04
2022-08-03T07:25:29.373Z,23.47
2022-08-03T07:27:55.896Z,24.32
2022-08-03T07:30:22.888Z,25.21
2022-08-03T07:32:50.404Z,24.54
2022-08-03T07:35:24.211Z,25.57
2022-08-03T07:37:54.066Z,25.84
2022-08-03T07:40:21.361Z,26.18
2022-08-03T07:42:47.833Z,26.21
2022-08-03T07:45:18.697Z,24.98
2022-08-03T07:47:46.202Z,25.19
2022-08-03T07:50:20.223Z,26.13
2022-08-03T07:52:46.693Z,26.95
2022-08-03T07:55:13.178Z,25.04
2022-08-03T07:57:39.793Z,26.15
2022-08-03T08:00:08.401Z,25.33
2022-08-03T08:02:35.066Z,24.76
2022-08-03T08:05:05.503Z,24.10
2022-08-03T08:07:32.561Z,25.00
2022-08-03T08:09:59.032Z,25.93
2022-08-03T08:12:25.477Z,26.08
2022-08-03T08:14:51.979Z,25.49
2022-08-03T08:17:18.472Z,27.68
2022-08-03T08:19:51.588Z,28.22
2022-08-03T08:22:25.852Z,28.69
2022-08-03T08:24:56.871Z,28.05
2022-08-03T08:27:23.524Z,27.99
2022-08-03T08:29:56.319Z,28.20
2022-08-03T08:32:25.357Z,26.72
2022-08-03T08:34:51.770Z,27.38
2022-08-03T08:37:18.217Z,26.99
2022-08-03T08:39:44.650Z,26.52
2022-08-03T08:42:11.081Z,25.76
2022-08-03T08:44:37.589Z,26.10
2022-08-03T08:47:04.095Z,26.72
2022-08-03T08:49:32.880Z,28.65
2022-08-03T08:52:01.653Z,27.16
2022-08-03T08:54:29.699Z,29.63
2022-08-03T08:57:00.968Z,30.65
2022-08-03T08:59:27.649Z,30.21
2022-08-03T09:02:14.235Z,31.26
2022-08-03T09:04:40.849Z,30.92
2022-08-03T09:07:19.758Z,31.04
2022-08-03T09:10:10.542Z,32.79
2022-08-03T09:12:48.931Z,31.69
2022-08-03T09:15:19.249Z,33.24
2022-08-03T09:17:50.646Z,31.41
2022-08-03T09:20:18.480Z,31.23
2022-08-03T09:23:24.940Z,31.87
2022-08-03T09:26:00.143Z,30.70
2022-08-03T09:28:59.478Z,30.14
2022-08-03T09:31:38.935Z,32.50
2022-08-03T09:34:13.175Z,31.99
2022-08-03T09:36:47.020Z,32.14
2022-08-03T09:39:40.948Z,32.51
2022-08-03T09:42:15.441Z,30.51
2022-08-03T09:44:44.148Z,31.97
2022-08-03T09:47:12.880Z,30.08
2022-08-03T09:49:41.186Z,30.22
2022-08-03T09:52:37.582Z,29.09
2022-08-03T09:56:30.586Z,30.78
2022-08-03T09:58:06.174Z,33.28
2022-08-03T10:00:32.623Z,30.37
2022-08-03T10:03:04.733Z,28.85
2022-08-03T10:05:34.045Z,31.76
2022-08-03T10:08:00.502Z,31.44
2022-08-03T10:10:31.110Z,32.85
2022-08-03T10:13:00.051Z,31.53
2022-08-03T10:16:21.153Z,34.06
2022-08-03T10:18:13.893Z,31.36
2022-08-03T10:20:46.753Z,34.18
2022-08-03T10:23:14.430Z,32.36
2022-08-03T10:25:41.370Z,30.54
2022-08-03T10:28:12.565Z,31.94
2022-08-03T10:30:43.964Z,33.11
2022-08-03T10:33:51.252Z,32.63
2022-08-03T10:36:06.728Z,33.12
2022-08-03T10:38:38.581Z,31.23
2022-08-03T10:41:07.834Z,31.64
2022-08-03T10:43:39.359Z,28.76
2022-08-03T10:46:08.539Z,30.82
2022-08-03T10:48:36.134Z,29.49
2022-08-03T10:51:03.226Z,30.16
2022-08-03T10:53:41.091Z,30.43
2022-08-03T10:56:50.396Z,30.15
2022-08-03T10:59:28.024Z,31.18
2022-08-03T11:02:00.321Z,30.42
2022-08-03T11:04:28.767Z,31.23
2022-08-03T11:07:24.147Z,31.27
2022-08-03T11:09:55.892Z,30.49
2022-08-03T11:12:31.242Z,30.47
2022-08-03T11:15:10.281Z,28.95
2022-08-03T11:17:46.150Z,29.42
2022-08-03T11:20:57.513Z,31.28
2022-08-03T11:24:02.911Z,31.59
2022-08-03T11:26:32.410Z,30.75
2022-08-03T11:29:28.886Z,30.66
2022-08-03T11:31:55.419Z,30.74
2022-08-03T11:34:21.955Z,30.50
2022-08-03T11:37:28.530Z,31.62
2022-08-03T11:39:56.627Z,30.39
2022-08-03T11:42:23.009Z,30.94
2022-08-03T11:44:59.467Z,30.05
2022-08-03T11:47:30.105Z,30.24
2022-08-03T11:50:00.356Z,30.92
2022-08-03T11:52:28.928Z,28.76
2022-08-03T11:54:56.450Z,29.24
2022-08-03T11:59:10.956Z,29.41
2022-08-03T12:00:25.989Z,29.51
2022-08-03T12:03:02.720Z,29.92
2022-08-03T12:05:51.193Z,30.37
2022-08-03T12:08:33.344Z,30.02
2022-08-03T12:11:03.104Z,30.98
2022-08-03T12:14:45.748Z,31.33
2022-08-03T12:16:47.229Z,32.19
2022-08-03T12:19:13.713Z,31.46
2022-08-03T12:21:56.947Z,31.35
2022-08-03T12:24:24.041Z,31.59
2022-08-03T12:26:58.682Z,31.19
2022-08-03T12:29:26.513Z,31.11
2022-08-03T12:31:53.108Z,31.48
2022-08-03T12:34:19.569Z,30.47
2022-08-03T12:36:53.651Z,30.98
2022-08-03T12:39:24.561Z,30.30
2022-08-03T12:41:54.058Z,31.06
2022-08-03T12:44:30.193Z,30.30
2022-08-03T12:47:01.115Z,30.75
2022-08-03T12:49:27.862Z,30.87
2022-08-03T12:52:03.866Z,31.22
2022-08-03T12:54:33.452Z,31.42
2022-08-03T12:57:08.115Z,31.42
2022-08-03T12:59:42.242Z,31.35
2022-08-03T13:02:18.408Z,31.51
2022-08-03T13:04:47.387Z,31.11
2022-08-03T13:07:15.403Z,31.40
2022-08-03T13:09:53.762Z,31.39
2022-08-03T13:12:28.496Z,30.73
2022-08-03T13:14:56.976Z,30.37
2022-08-03T13:17:23.936Z,31.89
2022-08-03T13:19:50.913Z,31.89
2022-08-03T13:22:23.327Z,32.65
2022-08-03T13:24:52.224Z,31.39
2022-08-03T13:28:04.794Z,32.10
2022-08-03T13:30:07.317Z,33.66
2022-08-03T13:32:33.950Z,32.72
2022-08-03T13:35:01.421Z,34.17
2022-08-03T13:37:28.459Z,34.67
2022-08-03T13:39:59.406Z,33.64
2022-08-03T13:42:35.284Z,34.64
2022-08-03T13:45:03.724Z,34.30
2022-08-03T13:47:30.465Z,33.96
2022-08-03T13:50:01.806Z,34.34
2022-08-03T13:52:30.632Z,34.44
2022-08-03T13:54:57.074Z,32.15
2022-08-03T13:58:06.234Z,33.13
2022-08-03T14:00:11.528Z,33.52
2022-08-03T14:02:38.081Z,31.41
2022-08-03T14:05:05.018Z,31.87
2022-08-03T14:07:31.564Z,33.35
2022-08-03T14:09:58.013Z,32.44
2022-08-03T14:12:24.453Z,34.64
2022-08-03T14:14:50.923Z,32.97
2022-08-03T14:17:17.479Z,32.85
2022-08-03T14:19:53.434Z,32.45
2022-08-03T14:22:21.244Z,30.96
2022-08-03T14:24:49.174Z,32.66
2022-08-03T14:27:16.750Z,33.05
2022-08-03T14:29:43.265Z,35.05
2022-08-03T14:32:13.329Z,33.95
2022-08-03T14:34:40.395Z,35.32
2022-08-03T14:37:06.872Z,34.50
2022-08-03T14:42:19.795Z,33.85
2022-08-03T14:44:46.530Z,33.27
2022-08-03T14:47:13.464Z,33.42
2022-08-03T14:50:37.961Z,32.60
2022-08-03T14:52:26.417Z,34.58
2022-08-03T14:54:52.874Z,33.72
2022-08-03T14:57:19.431Z,32.73
2022-08-03T14:59:55.760Z,31.89
2022-08-03T15:02:24.603Z,32.54
2022-08-03T15:04:51.750Z,33.17
2022-08-03T15:07:18.647Z,33.05
2022-08-03T15:09:45.225Z,31.70
2022-08-03T15:12:11.885Z,32.54
2022-08-03T15:14:38.355Z,33.99
2022-08-03T15:17:05.333Z,35.39
2022-08-03T15:20:02.164Z,34.87
2022-08-03T15:22:20.446Z,35.26
2022-08-03T15:24:47.516Z,32.93
2022-08-03T15:27:13.977Z,32.68
2022-08-03T15:30:05.105Z,34.76
2022-08-03T15:32:26.827Z,34.95
2022-08-03T15:34:53.277Z,35.41
2022-08-03T15:37:19.942Z,35.58
2022-08-03T15:39:59.176Z,36.29
2022-08-03T15:42:26.927Z,34.69
2022-08-03T15:44:54.535Z,33.97
2022-08-03T15:47:21.517Z,34.11
2022-08-03T15:49:48.228Z,32.94
2022-08-03T15:52:14.689Z,34.66
2022-08-03T15:54:41.323Z,34.87
2022-08-03T15:57:07.822Z,34.59
2022-08-03T15:59:34.356Z,35.12
2022-08-03T16:02:00.909Z,34.97
2022-08-03T16:04:27.437Z,34.69
2022-08-03T16:06:53.908Z,34.46
2022-08-03T16:09:24.325Z,34.33
2022-08-03T16:12:07.084Z,34.62
2022-08-03T16:14:51.864Z,34.77
2022-08-03T16:17:19.602Z,34.37
2022-08-03T16:19:46.334Z,34.62
2022-08-03T16:22:13.403Z,33.92
2022-08-03T16:24:41.153Z,32.85
2022-08-03T16:27:17.369Z,32.69
2022-08-03T16:29:54.257Z,32.16
2022-08-03T16:32:20.731Z,32.12
2022-08-03T16:34:47.149Z,32.12
2022-08-03T16:37:36.918Z,32.01
2022-08-03T16:40:00.287Z,31.46
2022-08-03T16:42:26.784Z,31.98
2022-08-03T16:44:53.208Z,32.05
2022-08-03T16:47:22.145Z,31.93
2022-08-03T16:49:54.715Z,32.01
2022-08-03T16:52:23.109Z,31.43
2022-08-03T16:54:53.144Z,30.81
2022-08-03T16:57:59.463Z,31.17
2022-08-03T17:00:12.275Z,31.01
2022-08-03T17:03:00.829Z,30.90
2022-08-03T17:05:43.793Z,30.60
2022-08-03T17:08:14.108Z,30.80
2022-08-03T17:10:42.652Z,30.74
2022-08-03T17:13:11.977Z,30.53
2022-08-03T17:15:58.381Z,30.43
2022-08-03T17:18:33.528Z,30.31
2022-08-03T17:21:03.726Z,30.12
2022-08-03T17:23:53.131Z,29.67
2022-08-03T17:26:22.464Z,30.19
2022-08-03T17:28:57.202Z,29.69
2022-08-03T17:31:31.654Z,30.07
2022-08-03T17:34:00.709Z,30.54
2022-08-03T17:36:47.599Z,30.00
2022-08-03T17:39:30.952Z,29.88
2022-08-03T17:42:29.630Z,29.67
2022-08-03T17:44:55.733Z,29.98
2022-08-03T17:47:23.025Z,29.87
2022-08-03T17:49:55.760Z,29.80
2022-08-03T17:52:30.734Z,29.76
2022-08-03T17:55:57.534Z,29.77
2022-08-03T17:58:04.186Z,29.57
2022-08-03T18:00:30.978Z,29.54
2022-08-03T18:03:04.643Z,29.68
2022-08-03T18:06:10.670Z,29.75
2022-08-03T18:08:25.623Z,29.60
2022-08-03T18:11:01.499Z,29.53
2022-08-03T18:13:44.934Z,29.70
2022-08-03T18:16:57.316Z,29.50
2022-08-03T18:20:02.471Z,29.39
2022-08-03T18:22:12.055Z,29.27
2022-08-03T18:24:42.133Z,28.96
2022-08-03T18:27:09.729Z,29.60
2022-08-03T18:29:36.345Z,29.38
2022-08-03T18:32:06.107Z,29.10
2022-08-03T18:34:36.987Z,29.08
2022-08-03T18:37:26.199Z,29.11
2022-08-03T18:39:57.888Z,29.22
2022-08-03T18:42:25.873Z,29.18
2022-08-03T18:44:56.334Z,28.94
2022-08-03T18:47:26.434Z,28.92
2022-08-03T18:50:00.600Z,29.22
2022-08-03T18:52:37.339Z,28.91
2022-08-03T18:56:01.660Z,29.13
2022-08-03T18:58:48.569Z,28.84
2022-08-03T19:02:00.977Z,28.73
2022-08-03T19:04:31.314Z,28.74
2022-08-03T19:07:04.142Z,28.68
2022-08-03T19:09:40.534Z,28.81
2022-08-03T19:12:30.963Z,28.82
2022-08-03T19:15:15.770Z,28.41
2022-08-03T19:17:50.195Z,28.55
2022-08-03T19:20:30.158Z,27.77
2022-08-03T19:22:57.957Z,27.54
2022-08-03T19:25:35.240Z,27.59
2022-08-03T19:28:03.631Z,28.08
2022-08-03T19:30:40.214Z,28.18
2022-08-03T19:33:12.672Z,28.00
2022-08-03T19:35:51.538Z,27.90
2022-08-03T19:38:28.486Z,28.23
2022-08-03T19:41:02.044Z,28.11
2022-08-03T19:43:52.914Z,27.85
2022-08-03T19:46:30.287Z,27.76
2022-08-03T19:49:04.535Z,27.56
2022-08-03T19:51:59.035Z,27.80
2022-08-03T19:54:29.803Z,27.35
2022-08-03T19:57:00.325Z,27.15
2022-08-03T19:59:29.433Z,27.40
2022-08-03T20:01:55.950Z,27.40
2022-08-03T20:04:22.504Z,27.36
2022-08-03T20:06:51.994Z,27.45
2022-08-03T20:09:20.438Z,27.33
2022-08-03T20:11:47.724Z,27.33
2022-08-03T20:14:20.815Z,27.14
2022-08-03T20:16:52.998Z,26.45
2022-08-03T20:19:20.006Z,26.96
2022-08-03T20:21:48.237Z,26.78
2022-08-03T20:24:36.630Z,26.72
2022-08-03T20:27:08.563Z,26.78
2022-08-03T20:30:05.061Z,26.78
2022-08-03T20:32:26.235Z,26.35
2022-08-03T20:34:53.279Z,25.98
2022-08-03T20:37:20.001Z,26.24
2022-08-03T20:39:48.204Z,25.65
2022-08-03T20:42:21.787Z,25.29
2022-08-03T20:47:50.613Z,25.48
2022-08-03T20:50:18.160Z,26.00
2022-08-03T20:52:49.997Z,25.80
2022-08-03T20:55:18.046Z,25.35
2022-08-03T20:57:49.196Z,25.25
2022-08-03T21:00:18.370Z,24.99
2022-08-03T21:02:44.829Z,25.51
2022-08-03T21:05:11.717Z,25.44
2022-08-03T21:08:04.096Z,24.82
2022-08-03T21:10:31.220Z,24.50
2022-08-03T21:13:07.320Z,25.82
2022-08-03T21:13:16.232Z,24.27
2022-08-03T21:16:02.314Z,24.46
2022-08-03T21:18:38.548Z,24.10
2022-08-03T21:21:06.708Z,24.50
2022-08-03T21:23:47.726Z,24.01
2022-08-03T21:26:17.823Z,24.82
2022-08-03T21:28:46.809Z,23.98
2022-08-03T21:31:14.749Z,24.83
2022-08-03T21:33:53.590Z,24.48
2022-08-03T21:36:20.116Z,24.78
2022-08-03T21:38:47.475Z,24.40
2022-08-03T21:41:22.698Z,24.04
2022-08-03T21:43:49.172Z,24.71
2022-08-03T21:46:19.211Z,24.89
2022-08-03T21:48:47.920Z,24.08
2022-08-03T21:51:16.779Z,24.03
2022-08-03T21:54:02.746Z,23.60
2022-08-03T21:56:35.239Z,23.72
2022-08-03T21:59:05.530Z,23.76
2022-08-03T22:01:35.479Z,23.95
2022-08-03T22:04:05.043Z,24.25
2022-08-03T22:06:33.648Z,24.63
2022-08-03T22:09:01.014Z,24.45
2022-08-03T22:11:27.656Z,23.69
2022-08-03T22:13:54.160Z,24.04
2022-08-03T22:16:21.214Z,24.10
2022-08-03T22:18:47.675Z,23.77
2022-08-03T22:21:16.473Z,23.77
2022-08-03T22:23:58.380Z,23.78
2022-08-03T22:26:32.420Z,24.03
2022-08-03T22:29:06.876Z,23.95
2022-08-03T22:31:58.628Z,24.47
2022-08-03T22:34:26.678Z,24.94
2022-08-03T22:36:57.199Z,24.81
2022-08-03T22:39:28.386Z,24.39
2022-08-03T22:41:57.452Z,24.51
2022-08-03T22:44:24.520Z,23.71
2022-08-03T22:46:51.649Z,23.64
2022-08-03T22:49:18.294Z,23.62
2022-08-03T22:51:44.963Z,23.79
2022-08-03T22:54:11.862Z,24.25
2022-08-03T22:56:38.793Z,24.52
2022-08-03T22:59:40.390Z,24.40
2022-08-03T23:02:00.405Z,24.25
2022-08-03T23:04:29.441Z,24.01
2022-08-03T23:06:58.185Z,24.01
2022-08-03T23:09:24.865Z,24.28
2022-08-03T23:11:55.260Z,24.09
2022-08-03T23:14:22.879Z,23.97
2022-08-03T23:16:51.810Z,24.03
2022-08-03T23:19:25.096Z,24.04
2022-08-03T23:22:02.845Z,24.14
2022-08-03T23:24:33.728Z,23.68
2022-08-03T23:27:03.294Z,23.31
2022-08-03T23:29:31.135Z,23.63
2022-08-03T23:31:58.316Z,23.93
2022-08-03T23:34:25.875Z,23.39
2022-08-03T23:36:53.726Z,23.42
2022-08-03T23:39:22.499Z,23.81
2022-08-03T23:41:49.551Z,23.60
2022-08-03T23:44:16.708Z,23.84
2022-08-03T23:46:44.356Z,23.84
2022-08-03T23:49:10.804Z,23.61
2022-08-03T23:51:56.585Z,23.75
2022-08-03T23:54:56.939Z,23.71
2022-08-03T23:57:29.422Z,23.25
